createdAt,value
2023-01-02T00:00:21.272Z,1007.07
2023-01-02T00:01:19.571Z,1007.15
2023-01-02T00:02:19.614Z,1007.10
2023-01-02T00:03:19.692Z,1007.11
2023-01-02T00:04:19.642Z,1007.15
2023-01-02T00:05:19.678Z,1007.16
2023-01-02T00:06:19.696Z,1007.14
2023-01-02T00:07:19.725Z,1007.11
2023-01-02T00:08:19.750Z,1007.12
2023-01-02T00:09:19.777Z,1007.13
2023-01-02T00:10:19.808Z,1007.15
2023-01-02T00:11:19.838Z,1007.08
2023-01-02T00:12:19.860Z,1007.13
2023-01-02T00:13:19.898Z,1007.14
2023-01-02T00:14:19.919Z,1007.11
2023-01-02T00:15:19.960Z,1007.11
2023-01-02T00:16:20.029Z,1007.07
2023-01-02T00:17:19.994Z,1007.11
2023-01-02T00:18:20.034Z,1007.07
2023-01-02T00:19:20.054Z,1007.10
2023-01-02T00:20:20.078Z,1007.01
2023-01-02T00:21:20.114Z,1007.02
2023-01-02T00:22:20.131Z,1006.99
2023-01-02T00:23:20.155Z,1006.97
2023-01-02T00:24:20.185Z,1006.98
2023-01-02T00:25:20.212Z,1006.92
2023-01-02T00:26:20.239Z,1006.92
2023-01-02T00:27:20.266Z,1006.95
2023-01-02T00:28:20.297Z,1006.93
2023-01-02T00:29:20.325Z,1006.92
2023-01-02T00:30:20.348Z,1006.90
2023-01-02T00:31:20.452Z,1006.84
2023-01-02T00:32:20.402Z,1006.87
2023-01-02T00:33:20.429Z,1006.89
2023-01-02T00:34:20.457Z,1006.86
2023-01-02T00:35:20.489Z,1006.88
2023-01-02T00:36:20.512Z,1006.89
2023-01-02T00:37:20.541Z,1006.87
2023-01-02T00:38:20.567Z,1006.86
2023-01-02T00:39:20.870Z,1006.93
2023-01-02T00:40:20.627Z,1006.88
2023-01-02T00:41:20.654Z,1006.88
2023-01-02T00:42:20.677Z,1006.85
2023-01-02T00:43:20.702Z,1006.85
2023-01-02T00:44:20.731Z,1006.80
2023-01-02T00:45:20.771Z,1006.85
2023-01-02T00:46:20.867Z,1006.87
2023-01-02T00:47:20.841Z,1006.84
2023-01-02T00:48:20.841Z,1006.86
2023-01-02T00:49:20.867Z,1006.86
2023-01-02T00:50:20.897Z,1006.88
2023-01-02T00:51:20.922Z,1006.81
2023-01-02T00:52:20.951Z,1006.76
2023-01-02T00:53:20.977Z,1006.85
2023-01-02T00:54:21.005Z,1006.79
2023-01-02T00:55:21.031Z,1006.78
2023-01-02T00:56:21.062Z,1006.73
2023-01-02T00:57:21.109Z,1006.65
2023-01-02T00:58:21.115Z,1006.70
2023-01-02T00:59:21.141Z,1006.66
2023-01-02T01:00:24.072Z,1006.70
2023-01-02T01:01:21.337Z,1006.71
2023-01-02T01:02:21.343Z,1006.71
2023-01-02T01:03:21.278Z,1006.74
2023-01-02T01:04:21.282Z,1006.73
2023-01-02T01:05:21.306Z,1006.70
2023-01-02T01:06:21.342Z,1006.69
2023-01-02T01:07:21.362Z,1006.62
2023-01-02T01:08:21.397Z,1006.66
2023-01-02T01:09:21.428Z,1006.63
2023-01-02T01:10:21.443Z,1006.60
2023-01-02T01:11:21.471Z,1006.57
2023-01-02T01:12:21.499Z,1006.61
2023-01-02T01:13:21.527Z,1006.64
2023-01-02T01:14:21.555Z,1006.59
2023-01-02T01:15:21.588Z,1006.61
2023-01-02T01:16:21.653Z,1006.61
2023-01-02T01:17:21.638Z,1006.63
2023-01-02T01:18:21.684Z,1006.65
2023-01-02T01:19:21.710Z,1006.68
2023-01-02T01:20:21.723Z,1006.64
2023-01-02T01:21:21.749Z,1006.64
2023-01-02T01:22:21.775Z,1006.60
2023-01-02T01:23:21.798Z,1006.61
2023-01-02T01:24:21.846Z,1006.62
2023-01-02T01:25:21.852Z,1006.65
2023-01-02T01:26:21.884Z,1006.64
2023-01-02T01:27:21.910Z,1006.66
2023-01-02T01:28:21.939Z,1006.67
2023-01-02T01:29:22.069Z,1006.70
2023-01-02T01:30:21.992Z,1006.71
2023-01-02T01:31:22.061Z,1006.69
2023-01-02T01:32:22.048Z,1006.75
2023-01-02T01:33:22.077Z,1006.74
2023-01-02T01:34:22.112Z,1006.68
2023-01-02T01:35:22.146Z,1006.71
2023-01-02T01:36:22.161Z,1006.79
2023-01-02T01:37:22.182Z,1006.76
2023-01-02T01:38:22.213Z,1006.72
2023-01-02T01:39:22.260Z,1006.75
2023-01-02T01:40:22.263Z,1006.80
2023-01-02T01:41:22.296Z,1006.76
2023-01-02T01:42:22.335Z,1006.79
2023-01-02T01:43:22.349Z,1006.77
2023-01-02T01:44:22.378Z,1006.70
2023-01-02T01:45:22.440Z,1006.73
2023-01-02T01:46:22.440Z,1006.78
2023-01-02T01:47:22.458Z,1006.76
2023-01-02T01:48:22.491Z,1006.73
2023-01-02T01:49:22.526Z,1006.74
2023-01-02T01:50:22.541Z,1006.72
2023-01-02T01:51:22.587Z,1006.79
2023-01-02T01:52:22.603Z,1006.80
2023-01-02T01:53:22.621Z,1006.79
2023-01-02T01:54:22.653Z,1006.79
2023-01-02T01:55:22.678Z,1006.80
2023-01-02T01:56:22.709Z,1006.81
2023-01-02T01:57:22.734Z,1006.85
2023-01-02T01:58:22.768Z,1006.87
2023-01-02T01:59:22.789Z,1006.82
2023-01-02T02:00:22.822Z,1006.82
2023-01-02T02:01:22.909Z,1006.84
2023-01-02T02:02:22.989Z,1006.86
2023-01-02T02:03:22.947Z,1006.83
2023-01-02T02:04:22.927Z,1006.81
2023-01-02T02:05:22.962Z,1006.85
2023-01-02T02:06:22.983Z,1006.87
2023-01-02T02:07:23.025Z,1006.90
2023-01-02T02:08:23.037Z,1006.89
2023-01-02T02:09:23.094Z,1006.88
2023-01-02T02:10:23.091Z,1006.90
2023-01-02T02:11:23.122Z,1006.93
2023-01-02T02:12:27.955Z,1006.92
2023-01-02T02:13:23.181Z,1006.89
2023-01-02T02:14:23.203Z,1006.92
2023-01-02T02:15:23.229Z,1006.89
2023-01-02T02:16:23.307Z,1006.86
2023-01-02T02:17:23.284Z,1006.88
2023-01-02T02:18:23.315Z,1006.84
2023-01-02T02:19:23.338Z,1006.81
2023-01-02T02:20:23.366Z,1006.82
2023-01-02T02:21:23.396Z,1006.83
2023-01-02T02:22:23.421Z,1006.78
2023-01-02T02:23:23.567Z,1006.89
2023-01-02T02:24:23.483Z,1006.88
2023-01-02T02:25:23.503Z,1006.86
2023-01-02T02:26:23.557Z,1006.90
2023-01-02T02:27:23.559Z,1006.86
2023-01-02T02:28:23.587Z,1006.84
2023-01-02T02:29:23.614Z,1006.81
2023-01-02T02:30:23.649Z,1006.84
2023-01-02T02:31:23.734Z,1006.80
2023-01-02T02:32:23.699Z,1006.81
2023-01-02T02:33:23.734Z,1006.77
2023-01-02T02:34:23.759Z,1006.72
2023-01-02T02:35:23.784Z,1006.71
2023-01-02T02:36:23.809Z,1006.71
2023-01-02T02:37:23.837Z,1006.72
2023-01-02T02:38:23.863Z,1006.71
2023-01-02T02:39:24.014Z,1006.73
2023-01-02T02:40:23.964Z,1006.75
2023-01-02T02:41:23.987Z,1006.73
2023-01-02T02:42:23.971Z,1006.72
2023-01-02T02:43:24.003Z,1006.75
2023-01-02T02:44:24.028Z,1006.74
2023-01-02T02:45:24.056Z,1006.74
2023-01-02T02:46:24.114Z,1006.75
2023-01-02T02:47:24.109Z,1006.73
2023-01-02T02:48:24.144Z,1006.68
2023-01-02T02:49:24.166Z,1006.66
2023-01-02T02:50:24.197Z,1006.63
2023-01-02T02:51:24.220Z,1006.73
2023-01-02T02:52:24.248Z,1006.67
2023-01-02T02:53:24.275Z,1006.67
2023-01-02T02:54:24.306Z,1006.67
2023-01-02T02:55:24.506Z,1006.60
2023-01-02T02:56:24.366Z,1006.59
2023-01-02T02:57:24.389Z,1006.64
2023-01-02T02:58:24.415Z,1006.67
2023-01-02T02:59:24.595Z,1006.67
2023-01-02T03:00:24.469Z,1006.65
2023-01-02T03:01:29.956Z,1006.60
2023-01-02T03:02:24.752Z,1006.66
2023-01-02T03:03:24.623Z,1006.66
2023-01-02T03:04:24.580Z,1006.60
2023-01-02T03:05:24.606Z,1006.52
2023-01-02T03:06:24.638Z,1006.52
2023-01-02T03:07:24.662Z,1006.54
2023-01-02T03:08:28.182Z,1006.55
2023-01-02T03:09:24.724Z,1006.58
2023-01-02T03:10:24.749Z,1006.56
2023-01-02T03:11:24.811Z,1006.49
2023-01-02T03:12:24.799Z,1006.52
2023-01-02T03:13:24.829Z,1006.51
2023-01-02T03:14:24.865Z,1006.50
2023-01-02T03:15:24.885Z,1006.47
2023-01-02T03:16:24.934Z,1006.46
2023-01-02T03:17:24.945Z,1006.39
2023-01-02T03:18:24.963Z,1006.41
2023-01-02T03:19:24.994Z,1006.45
2023-01-02T03:20:25.020Z,1006.36
2023-01-02T03:21:30.929Z,1006.42
2023-01-02T03:22:25.075Z,1006.41
2023-01-02T03:23:25.111Z,1006.46
2023-01-02T03:24:25.136Z,1006.52
2023-01-02T03:25:25.169Z,1006.51
2023-01-02T03:26:25.184Z,1006.54
2023-01-02T03:27:25.230Z,1006.58
2023-01-02T03:28:25.241Z,1006.59
2023-01-02T03:29:25.269Z,1006.60
2023-01-02T03:30:25.384Z,1006.67
2023-01-02T03:31:25.324Z,1006.62
2023-01-02T03:32:25.360Z,1006.60
2023-01-02T03:33:25.382Z,1006.61
2023-01-02T03:34:25.412Z,1006.63
2023-01-02T03:35:25.439Z,1006.71
2023-01-02T03:36:25.461Z,1006.70
2023-01-02T03:37:25.500Z,1006.67
2023-01-02T03:38:25.540Z,1006.69
2023-01-02T03:39:25.556Z,1006.69
2023-01-02T03:40:25.573Z,1006.74
2023-01-02T03:41:25.600Z,1006.77
2023-01-02T03:42:25.639Z,1006.80
2023-01-02T03:43:25.673Z,1006.77
2023-01-02T03:44:25.682Z,1006.74
2023-01-02T03:45:25.709Z,1006.70
2023-01-02T03:46:25.794Z,1006.70
2023-01-02T03:47:25.774Z,1006.74
2023-01-02T03:48:25.794Z,1006.74
2023-01-02T03:49:25.827Z,1006.75
2023-01-02T03:50:25.844Z,1006.67
2023-01-02T03:51:25.875Z,1006.82
2023-01-02T03:52:26.356Z,1006.79
2023-01-02T03:53:25.931Z,1006.75
2023-01-02T03:54:25.955Z,1006.78
2023-01-02T03:55:25.996Z,1006.75
2023-01-02T03:56:26.018Z,1006.70
2023-01-02T03:57:26.043Z,1006.75
2023-01-02T03:58:26.067Z,1006.71
2023-01-02T03:59:26.113Z,1006.75
2023-01-02T04:00:26.127Z,1006.76
2023-01-02T04:01:26.271Z,1006.78
2023-01-02T04:02:26.330Z,1006.70
2023-01-02T04:03:26.277Z,1006.75
2023-01-02T04:04:26.235Z,1006.77
2023-01-02T04:05:26.264Z,1006.76
2023-01-02T04:06:26.288Z,1006.75
2023-01-02T04:07:26.317Z,1006.78
2023-01-02T04:08:26.349Z,1006.79
2023-01-02T04:09:26.381Z,1006.77
2023-01-02T04:10:26.408Z,1006.73
2023-01-02T04:11:26.431Z,1006.71
2023-01-02T04:12:26.457Z,1006.75
2023-01-02T04:13:26.483Z,1006.69
2023-01-02T04:14:26.506Z,1006.70
2023-01-02T04:15:26.591Z,1006.77
2023-01-02T04:16:26.573Z,1006.71
2023-01-02T04:17:26.708Z,1006.73
2023-01-02T04:18:26.619Z,1006.72
2023-01-02T04:19:26.652Z,1006.76
2023-01-02T04:20:26.677Z,1006.85
2023-01-02T04:21:26.703Z,1006.86
2023-01-02T04:22:26.728Z,1006.84
2023-01-02T04:23:26.756Z,1006.75
2023-01-02T04:24:26.787Z,1006.78
2023-01-02T04:25:26.814Z,1006.79
2023-01-02T04:26:26.858Z,1006.79
2023-01-02T04:27:26.888Z,1006.78
2023-01-02T04:28:26.892Z,1006.81
2023-01-02T04:29:26.923Z,1006.74
2023-01-02T04:30:26.947Z,1006.76
2023-01-02T04:31:27.069Z,1006.74
2023-01-02T04:32:26.998Z,1006.69
2023-01-02T04:33:27.041Z,1006.81
2023-01-02T04:34:27.057Z,1006.73
2023-01-02T04:35:27.085Z,1006.76
2023-01-02T04:36:27.117Z,1006.64
2023-01-02T04:37:27.141Z,1006.69
2023-01-02T04:38:27.167Z,1006.74
2023-01-02T04:39:27.202Z,1006.70
2023-01-02T04:40:27.222Z,1006.77
2023-01-02T04:41:27.419Z,1006.80
2023-01-02T04:42:27.283Z,1006.73
2023-01-02T04:43:27.307Z,1006.83
2023-01-02T04:44:27.333Z,1006.80
2023-01-02T04:45:27.368Z,1006.76
2023-01-02T04:46:27.410Z,1006.87
2023-01-02T04:47:27.434Z,1006.91
2023-01-02T04:48:27.442Z,1006.84
2023-01-02T04:49:27.473Z,1006.85
2023-01-02T04:50:27.503Z,1006.89
2023-01-02T04:51:27.531Z,1006.91
2023-01-02T04:52:30.731Z,1006.90
2023-01-02T04:53:27.583Z,1006.95
2023-01-02T04:54:27.607Z,1006.94
2023-01-02T04:55:27.741Z,1006.96
2023-01-02T04:56:27.663Z,1006.94
2023-01-02T04:57:27.692Z,1006.94
2023-01-02T04:58:27.714Z,1006.92
2023-01-02T04:59:27.746Z,1006.99
2023-01-02T05:00:27.844Z,1007.01
2023-01-02T05:01:27.945Z,1007.05
2023-01-02T05:02:28.018Z,1007.06
2023-01-02T05:03:27.943Z,1007.10
2023-01-02T05:04:27.885Z,1007.09
2023-01-02T05:05:27.913Z,1007.16
2023-01-02T05:06:27.940Z,1007.15
2023-01-02T05:07:27.975Z,1007.16
2023-01-02T05:08:27.993Z,1007.17
2023-01-02T05:09:28.025Z,1007.25
2023-01-02T05:10:28.047Z,1007.23
2023-01-02T05:11:28.078Z,1007.23
2023-01-02T05:12:28.121Z,1007.26
2023-01-02T05:13:28.132Z,1007.20
2023-01-02T05:14:28.159Z,1007.22
2023-01-02T05:15:28.186Z,1007.29
2023-01-02T05:16:28.286Z,1007.26
2023-01-02T05:17:28.242Z,1007.24
2023-01-02T05:18:28.269Z,1007.29
2023-01-02T05:19:28.324Z,1007.27
2023-01-02T05:20:28.324Z,1007.29
2023-01-02T05:21:28.354Z,1007.29
2023-01-02T05:22:28.380Z,1007.30
2023-01-02T05:23:28.415Z,1007.26
2023-01-02T05:24:28.436Z,1007.30
2023-01-02T05:25:28.469Z,1007.28
2023-01-02T05:26:28.512Z,1007.37
2023-01-02T05:27:28.519Z,1007.37
2023-01-02T05:28:31.231Z,1007.39
2023-01-02T05:29:28.581Z,1007.30
2023-01-02T05:30:28.628Z,1007.34
2023-01-02T05:31:28.817Z,1007.37
2023-01-02T05:32:28.655Z,1007.43
2023-01-02T05:33:28.685Z,1007.39
2023-01-02T05:34:28.720Z,1007.41
2023-01-02T05:35:33.079Z,1007.43
2023-01-02T05:36:28.772Z,1007.39
2023-01-02T05:37:28.796Z,1007.41
2023-01-02T05:38:28.821Z,1007.37
2023-01-02T05:39:28.850Z,1007.39
2023-01-02T05:40:28.897Z,1007.41
2023-01-02T05:41:28.917Z,1007.43
2023-01-02T05:42:28.932Z,1007.46
2023-01-02T05:43:28.965Z,1007.40
2023-01-02T05:44:28.993Z,1007.41
2023-01-02T05:45:29.036Z,1007.46
2023-01-02T05:46:29.091Z,1007.44
2023-01-02T05:47:29.096Z,1007.43
2023-01-02T05:48:29.102Z,1007.46
2023-01-02T05:49:29.141Z,1007.50
2023-01-02T05:50:29.161Z,1007.46
2023-01-02T05:51:29.202Z,1007.47
2023-01-02T05:52:29.213Z,1007.44
2023-01-02T05:53:29.239Z,1007.46
2023-01-02T05:54:29.268Z,1007.49
2023-01-02T05:55:29.294Z,1007.49
2023-01-02T05:56:29.323Z,1007.50
2023-01-02T05:57:29.350Z,1007.56
2023-01-02T05:58:29.391Z,1007.50
2023-01-02T05:59:29.410Z,1007.56
2023-01-02T06:00:29.432Z,1007.62
2023-01-02T06:01:29.492Z,1007.57
2023-01-02T06:02:29.611Z,1007.56
2023-01-02T06:03:29.584Z,1007.57
2023-01-02T06:04:29.543Z,1007.59
2023-01-02T06:05:29.571Z,1007.60
2023-01-02T06:06:29.602Z,1007.57
2023-01-02T06:07:29.646Z,1007.61
2023-01-02T06:08:29.653Z,1007.58
2023-01-02T06:09:29.684Z,1007.67
2023-01-02T06:10:29.709Z,1007.66
2023-01-02T06:11:29.756Z,1007.66
2023-01-02T06:12:29.767Z,1007.62
2023-01-02T06:13:29.795Z,1007.64
2023-01-02T06:14:29.819Z,1007.61
2023-01-02T06:15:29.853Z,1007.59
2023-01-02T06:16:29.957Z,1007.60
2023-01-02T06:17:29.903Z,1007.68
2023-01-02T06:18:29.928Z,1007.73
2023-01-02T06:19:29.958Z,1007.74
2023-01-02T06:20:29.986Z,1007.74
2023-01-02T06:21:30.016Z,1007.76
2023-01-02T06:22:30.042Z,1007.79
2023-01-02T06:23:30.090Z,1007.81
2023-01-02T06:24:30.101Z,1007.79
2023-01-02T06:25:30.130Z,1007.79
2023-01-02T06:26:34.933Z,1007.83
2023-01-02T06:27:30.183Z,1007.83
2023-01-02T06:28:30.208Z,1007.83
2023-01-02T06:29:30.237Z,1007.83
2023-01-02T06:30:30.263Z,1007.84
2023-01-02T06:31:30.443Z,1007.81
2023-01-02T06:32:30.318Z,1007.85
2023-01-02T06:33:30.357Z,1007.85
2023-01-02T06:34:30.373Z,1007.84
2023-01-02T06:35:30.401Z,1007.85
2023-01-02T06:36:30.434Z,1007.85
2023-01-02T06:37:30.459Z,1007.81
2023-01-02T06:38:30.484Z,1007.85
2023-01-02T06:39:30.545Z,1007.89
2023-01-02T06:40:30.540Z,1007.85
2023-01-02T06:41:30.578Z,1007.82
2023-01-02T06:42:30.977Z,1007.84
2023-01-02T06:43:30.628Z,1007.85
2023-01-02T06:44:30.662Z,1007.81
2023-01-02T06:45:30.705Z,1007.85
2023-01-02T06:46:30.705Z,1007.86
2023-01-02T06:47:30.742Z,1007.81
2023-01-02T06:48:30.761Z,1007.82
2023-01-02T06:49:30.802Z,1007.79
2023-01-02T06:50:34.920Z,1007.77
2023-01-02T06:51:30.861Z,1007.74
2023-01-02T06:52:30.895Z,1007.77
2023-01-02T06:53:30.903Z,1007.78
2023-01-02T06:54:30.930Z,1007.76
2023-01-02T06:55:30.979Z,1007.78
2023-01-02T06:56:30.993Z,1007.76
2023-01-02T06:57:31.017Z,1007.75
2023-01-02T06:58:31.040Z,1007.76
2023-01-02T06:59:31.074Z,1007.75
2023-01-02T07:00:31.162Z,1007.87
2023-01-02T07:01:31.199Z,1007.81
2023-01-02T07:02:31.200Z,1007.83
2023-01-02T07:03:31.181Z,1007.83
2023-01-02T07:04:31.207Z,1007.81
2023-01-02T07:05:31.239Z,1007.83
2023-01-02T07:06:31.261Z,1007.82
2023-01-02T07:07:31.291Z,1007.84
2023-01-02T07:08:31.321Z,1007.82
2023-01-02T07:09:31.347Z,1007.83
2023-01-02T07:10:31.372Z,1007.85
2023-01-02T07:11:31.425Z,1007.80
2023-01-02T07:12:31.428Z,1007.85
2023-01-02T07:13:31.460Z,1007.89
2023-01-02T07:14:31.486Z,1007.87
2023-01-02T07:15:31.512Z,1007.91
2023-01-02T07:16:31.600Z,1007.93
2023-01-02T07:17:31.568Z,1007.94
2023-01-02T07:18:31.593Z,1007.93
2023-01-02T07:19:31.640Z,1007.96
2023-01-02T07:20:31.663Z,1007.95
2023-01-02T07:21:31.684Z,1007.99
2023-01-02T07:22:31.710Z,1008.00
2023-01-02T07:23:31.744Z,1007.93
2023-01-02T07:24:31.760Z,1007.99
2023-01-02T07:25:31.795Z,1007.99
2023-01-02T07:26:31.817Z,1008.02
2023-01-02T07:27:31.868Z,1008.06
2023-01-02T07:28:31.877Z,1008.05
2023-01-02T07:29:31.907Z,1008.06
2023-01-02T07:30:31.941Z,1008.10
2023-01-02T07:31:32.054Z,1008.12
2023-01-02T07:32:31.984Z,1008.10
2023-01-02T07:33:32.030Z,1008.12
2023-01-02T07:34:32.041Z,1008.16
2023-01-02T07:35:32.079Z,1008.14
2023-01-02T07:36:32.099Z,1008.14
2023-01-02T07:37:32.124Z,1008.16
2023-01-02T07:38:32.152Z,1008.16
2023-01-02T07:39:32.177Z,1008.14
2023-01-02T07:40:32.618Z,1008.18
2023-01-02T07:41:32.234Z,1008.18
2023-01-02T07:42:32.260Z,1008.19
2023-01-02T07:43:32.310Z,1008.15
2023-01-02T07:44:32.314Z,1008.25
2023-01-02T07:45:32.403Z,1008.26
2023-01-02T07:46:32.489Z,1008.27
2023-01-02T07:47:32.404Z,1008.26
2023-01-02T07:48:32.432Z,1008.27
2023-01-02T07:49:32.452Z,1008.27
2023-01-02T07:50:32.542Z,1008.26
2023-01-02T07:51:32.526Z,1008.27
2023-01-02T07:52:32.541Z,1008.31
2023-01-02T07:53:32.575Z,1008.30
2023-01-02T07:54:32.600Z,1008.35
2023-01-02T07:55:32.619Z,1008.36
2023-01-02T07:56:32.704Z,1008.31
2023-01-02T07:57:32.678Z,1008.31
2023-01-02T07:58:32.704Z,1008.34
2023-01-02T07:59:32.771Z,1008.30
2023-01-02T08:00:32.755Z,1008.29
2023-01-02T08:01:32.947Z,1008.32
2023-01-02T08:02:33.016Z,1008.33
2023-01-02T08:03:32.852Z,1008.31
2023-01-02T08:04:32.903Z,1008.32
2023-01-02T08:05:32.900Z,1008.36
2023-01-02T08:06:32.925Z,1008.37
2023-01-02T08:07:32.961Z,1008.39
2023-01-02T08:08:32.983Z,1008.39
2023-01-02T08:09:33.012Z,1008.48
2023-01-02T08:10:33.042Z,1008.46
2023-01-02T08:11:33.066Z,1008.51
2023-01-02T08:12:33.093Z,1008.48
2023-01-02T08:13:33.115Z,1008.57
2023-01-02T08:14:33.152Z,1008.58
2023-01-02T08:15:33.220Z,1008.58
2023-01-02T08:16:33.376Z,1008.59
2023-01-02T08:17:33.235Z,1008.62
2023-01-02T08:18:33.255Z,1008.73
2023-01-02T08:19:33.281Z,1008.70
2023-01-02T08:20:33.311Z,1008.69
2023-01-02T08:21:33.341Z,1008.73
2023-01-02T08:22:33.365Z,1008.80
2023-01-02T08:23:33.402Z,1008.78
2023-01-02T08:24:33.422Z,1008.81
2023-01-02T08:25:33.448Z,1008.87
2023-01-02T08:26:33.475Z,1008.90
2023-01-02T08:27:33.503Z,1008.96
2023-01-02T08:28:33.537Z,1008.95
2023-01-02T08:29:33.558Z,1009.05
2023-01-02T08:30:33.631Z,1009.09
2023-01-02T08:31:34.123Z,1009.17
2023-01-02T08:32:33.643Z,1009.15
2023-01-02T08:33:33.670Z,1009.18
2023-01-02T08:34:33.697Z,1009.20
2023-01-02T08:35:38.492Z,1009.19
2023-01-02T08:36:33.762Z,1009.25
2023-01-02T08:37:33.779Z,1009.27
2023-01-02T08:38:33.810Z,1009.30
2023-01-02T08:39:33.836Z,1009.32
2023-01-02T08:40:33.861Z,1009.31
2023-01-02T08:41:33.888Z,1009.39
2023-01-02T08:42:33.915Z,1009.48
2023-01-02T08:43:33.940Z,1009.43
2023-01-02T08:44:33.975Z,1009.44
2023-01-02T08:45:33.999Z,1009.55
2023-01-02T08:46:38.590Z,1009.57
2023-01-02T08:47:34.076Z,1009.58
2023-01-02T08:48:34.124Z,1009.59
2023-01-02T08:49:34.132Z,1009.58
2023-01-02T08:50:34.133Z,1009.62
2023-01-02T08:51:34.161Z,1009.65
2023-01-02T08:52:34.190Z,1009.66
2023-01-02T08:53:34.215Z,1009.66
2023-01-02T08:54:34.241Z,1009.71
2023-01-02T08:55:34.269Z,1009.76
2023-01-02T08:56:34.297Z,1009.80
2023-01-02T08:57:34.323Z,1009.82
2023-01-02T08:58:34.350Z,1009.86
2023-01-02T08:59:34.376Z,1009.85
2023-01-02T09:00:34.417Z,1009.86
2023-01-02T09:01:34.539Z,1009.92
2023-01-02T09:02:34.703Z,1009.92
2023-01-02T09:03:34.582Z,1009.94
2023-01-02T09:04:34.516Z,1009.91
2023-01-02T09:05:34.537Z,1009.92
2023-01-02T09:06:34.572Z,1009.91
2023-01-02T09:07:34.592Z,1009.94
2023-01-02T09:08:34.647Z,1009.98
2023-01-02T09:09:34.646Z,1010.00
2023-01-02T09:10:34.681Z,1009.99
2023-01-02T09:11:34.697Z,1010.02
2023-01-02T09:12:34.727Z,1010.02
2023-01-02T09:13:34.754Z,1010.03
2023-01-02T09:14:34.932Z,1010.09
2023-01-02T09:15:34.854Z,1010.06
2023-01-02T09:16:34.836Z,1010.05
2023-01-02T09:17:34.859Z,1010.11
2023-01-02T09:18:34.891Z,1010.11
2023-01-02T09:19:34.930Z,1010.15
2023-01-02T09:20:34.943Z,1010.20
2023-01-02T09:21:34.976Z,1010.20
2023-01-02T09:22:34.996Z,1010.22
2023-01-02T09:23:35.022Z,1010.25
2023-01-02T09:24:35.053Z,1010.21
2023-01-02T09:25:35.073Z,1010.22
2023-01-02T09:26:35.120Z,1010.29
2023-01-02T09:27:35.126Z,1010.28
2023-01-02T09:28:35.196Z,1010.29
2023-01-02T09:29:35.209Z,1010.27
2023-01-02T09:30:35.206Z,1010.31
2023-01-02T09:31:35.334Z,1010.32
2023-01-02T09:32:35.271Z,1010.38
2023-01-02T09:33:35.289Z,1010.41
2023-01-02T09:34:35.311Z,1010.40
2023-01-02T09:35:35.366Z,1010.49
2023-01-02T09:36:35.380Z,1010.52
2023-01-02T09:37:35.398Z,1010.62
2023-01-02T09:38:35.429Z,1010.61
2023-01-02T09:39:35.454Z,1010.60
2023-01-02T09:40:35.479Z,1010.70
2023-01-02T09:41:35.502Z,1010.70
2023-01-02T09:42:35.551Z,1010.72
2023-01-02T09:43:35.554Z,1010.66
2023-01-02T09:44:35.579Z,1010.67
2023-01-02T09:45:35.607Z,1010.70
2023-01-02T09:46:35.683Z,1010.70
2023-01-02T09:47:35.669Z,1010.69
2023-01-02T09:48:35.692Z,1010.72
2023-01-02T09:49:35.715Z,1010.72
2023-01-02T09:50:35.754Z,1010.75
2023-01-02T09:51:35.797Z,1010.79
2023-01-02T09:52:35.796Z,1010.81
2023-01-02T09:53:35.823Z,1010.77
2023-01-02T09:54:35.854Z,1010.83
2023-01-02T09:55:35.876Z,1010.81
2023-01-02T09:56:35.914Z,1010.80
2023-01-02T09:57:35.941Z,1010.80
2023-01-02T09:58:35.961Z,1010.87
2023-01-02T09:59:35.989Z,1010.87
2023-01-02T10:00:36.012Z,1010.88
2023-01-02T10:01:36.071Z,1010.90
2023-01-02T10:02:36.090Z,1010.91
2023-01-02T10:03:36.192Z,1010.95
2023-01-02T10:04:36.118Z,1011.01
2023-01-02T10:05:36.141Z,1010.95
2023-01-02T10:06:36.186Z,1010.98
2023-01-02T10:07:36.317Z,1010.92
2023-01-02T10:08:36.225Z,1010.97
2023-01-02T10:09:36.251Z,1010.92
2023-01-02T10:10:36.280Z,1010.96
2023-01-02T10:11:36.306Z,1010.95
2023-01-02T10:12:36.334Z,1010.97
2023-01-02T10:14:17.942Z,1011.03
2023-01-02T10:14:42.003Z,1010.99
2023-01-02T10:15:36.419Z,1011.05
2023-01-02T10:16:36.439Z,1010.99
2023-01-02T10:17:36.466Z,1011.04
2023-01-02T10:18:36.493Z,1011.02
2023-01-02T10:19:36.523Z,1011.00
2023-01-02T10:20:36.546Z,1011.04
2023-01-02T10:21:36.573Z,1011.02
2023-01-02T10:22:36.601Z,1011.04
2023-01-02T10:23:36.675Z,1011.05
2023-01-02T10:24:36.657Z,1011.01
2023-01-02T10:25:36.686Z,1011.04
2023-01-02T10:26:36.724Z,1011.00
2023-01-02T10:27:36.734Z,1011.01
2023-01-02T10:28:36.799Z,1011.00
2023-01-02T10:29:36.791Z,1011.04
2023-01-02T10:30:36.842Z,1011.03
2023-01-02T10:31:36.924Z,1011.05
2023-01-02T10:32:36.871Z,1011.04
2023-01-02T10:33:36.896Z,1011.03
2023-01-02T10:34:36.924Z,1011.04
2023-01-02T10:35:36.948Z,1011.04
2023-01-02T10:36:36.978Z,1011.09
2023-01-02T10:37:37.028Z,1011.10
2023-01-02T10:38:37.035Z,1011.11
2023-01-02T10:39:37.077Z,1011.14
2023-01-02T10:40:37.183Z,1011.16
2023-01-02T10:41:37.110Z,1011.15
2023-01-02T10:42:37.145Z,1011.17
2023-01-02T10:43:37.208Z,1011.20
2023-01-02T10:44:37.193Z,1011.20
2023-01-02T10:45:37.222Z,1011.21
2023-01-02T10:46:37.315Z,1011.23
2023-01-02T10:47:37.293Z,1011.26
2023-01-02T10:48:37.337Z,1011.24
2023-01-02T10:49:37.326Z,1011.29
2023-01-02T10:50:37.353Z,1011.27
2023-01-02T10:51:37.380Z,1011.20
2023-01-02T10:52:37.407Z,1011.23
2023-01-02T10:53:37.624Z,1011.23
2023-01-02T10:54:38.960Z,1011.28
2023-01-02T10:55:37.515Z,1011.30
2023-01-02T10:56:37.514Z,1011.36
2023-01-02T10:57:37.539Z,1011.29
2023-01-02T10:58:37.566Z,1011.34
2023-01-02T10:59:37.593Z,1011.32
2023-01-02T11:00:37.660Z,1011.39
2023-01-02T11:01:37.877Z,1011.36
2023-01-02T11:02:37.737Z,1011.36
2023-01-02T11:03:37.700Z,1011.34
2023-01-02T11:04:37.727Z,1011.31
2023-01-02T11:05:37.754Z,1011.33
2023-01-02T11:06:40.013Z,1011.32
2023-01-02T11:07:37.808Z,1011.34
2023-01-02T11:08:37.838Z,1011.39
2023-01-02T11:09:37.858Z,1011.38
2023-01-02T11:10:37.888Z,1011.34
2023-01-02T11:11:37.931Z,1011.31
2023-01-02T11:12:37.942Z,1011.34
2023-01-02T11:13:37.967Z,1011.28
2023-01-02T11:14:37.992Z,1011.30
2023-01-02T11:15:38.018Z,1011.31
2023-01-02T11:16:38.068Z,1011.32
2023-01-02T11:17:38.078Z,1011.33
2023-01-02T11:18:38.101Z,1011.38
2023-01-02T11:19:38.125Z,1011.41
2023-01-02T11:20:38.153Z,1011.42
2023-01-02T11:21:38.179Z,1011.41
2023-01-02T11:22:38.205Z,1011.41
2023-01-02T11:23:38.232Z,1011.38
2023-01-02T11:24:38.259Z,1011.37
2023-01-02T11:25:38.289Z,1011.43
2023-01-02T11:26:38.342Z,1011.41
2023-01-02T11:27:38.373Z,1011.44
2023-01-02T11:28:38.366Z,1011.43
2023-01-02T11:29:38.390Z,1011.41
2023-01-02T11:30:38.423Z,1011.35
2023-01-02T11:31:38.556Z,1011.31
2023-01-02T11:32:38.584Z,1011.32
2023-01-02T11:33:38.498Z,1011.38
2023-01-02T11:34:38.532Z,1011.40
2023-01-02T11:35:38.549Z,1011.46
2023-01-02T11:36:38.583Z,1011.46
2023-01-02T11:37:38.608Z,1011.47
2023-01-02T11:38:38.632Z,1011.49
2023-01-02T11:39:38.669Z,1011.48
2023-01-02T11:40:38.689Z,1011.52
2023-01-02T11:41:38.707Z,1011.52
2023-01-02T11:42:38.753Z,1011.55
2023-01-02T11:43:38.785Z,1011.54
2023-01-02T11:44:38.790Z,1011.66
2023-01-02T11:45:38.884Z,1011.59
2023-01-02T11:46:38.843Z,1011.54
2023-01-02T11:47:38.869Z,1011.54
2023-01-02T11:48:38.904Z,1011.51
2023-01-02T11:49:38.926Z,1011.51
2023-01-02T11:50:38.949Z,1011.51
2023-01-02T11:51:38.983Z,1011.51
2023-01-02T11:52:38.999Z,1011.50
2023-01-02T11:53:39.026Z,1011.54
2023-01-02T11:54:39.051Z,1011.52
2023-01-02T11:55:39.079Z,1011.53
2023-01-02T11:56:39.109Z,1011.54
2023-01-02T11:57:39.138Z,1011.59
2023-01-02T11:58:39.160Z,1011.62
2023-01-02T11:59:39.331Z,1011.63
2023-01-02T12:00:39.214Z,1011.59
2023-01-02T12:01:39.317Z,1011.63
2023-01-02T12:02:39.369Z,1011.62
2023-01-02T12:03:39.331Z,1011.57
2023-01-02T12:04:39.318Z,1011.64
2023-01-02T12:05:39.349Z,1011.64